createdAt,value
2022-08-24T00:00:10.984Z,100533.69
2022-08-24T00:05:14.995Z,100538.22
2022-08-24T00:10:19.069Z,100531.75
2022-08-24T00:15:23.388Z,100536.88
2022-08-24T00:20:26.572Z,100531.31
2022-08-24T00:25:29.384Z,100531.31
2022-08-24T00:30:34.780Z,100540.56
2022-08-24T00:35:37.889Z,100538.75
2022-08-24T00:40:43.437Z,100530.28
2022-08-24T00:46:04.487Z,100537.44
2022-08-24T00:51:12.846Z,100540.25
2022-08-24T00:56:22.022Z,100544.66
2022-08-24T01:01:28.052Z,100541.31
2022-08-24T01:06:33.361Z,100538.66
2022-08-24T01:11:36.673Z,100544.69
2022-08-24T01:16:59.142Z,100536.03
2022-08-24T01:22:16.974Z,100546.84
2022-08-24T01:27:24.885Z,100543.72
2022-08-24T01:32:31.022Z,100543.44
2022-08-24T01:37:34.509Z,100539.38
2022-08-24T01:42:39.064Z,100544.44
2022-08-24T01:47:41.936Z,100547.00
2022-08-24T01:53:04.311Z,100542.75
2022-08-24T01:58:09.095Z,100540.06
2022-08-24T02:03:12.212Z,100545.47
2022-08-24T02:08:15.941Z,100544.03
2022-08-24T02:13:20.205Z,100552.69
2022-08-24T02:18:23.952Z,100546.94
2022-08-24T02:23:28.728Z,100543.75
2022-08-24T02:28:33.001Z,100549.56
2022-08-24T02:33:36.828Z,100544.34
2022-08-24T02:38:40.341Z,100554.41
2022-08-24T02:43:50.912Z,100559.00
2022-08-24T02:49:08.318Z,100555.13
2022-08-24T02:54:18.389Z,100559.75
2022-08-24T02:59:24.710Z,100563.34
2022-08-24T03:04:29.208Z,100560.97
2022-08-24T03:09:32.318Z,100557.97
2022-08-24T03:14:36.716Z,100566.78
2022-08-24T03:19:40.161Z,100574.44
2022-08-24T03:24:43.532Z,100570.84
2022-08-24T03:29:51.333Z,100573.09
2022-08-24T03:34:54.485Z,100570.59
2022-08-24T03:39:57.418Z,100564.25
2022-08-24T03:45:02.636Z,100569.34
2022-08-24T03:50:07.087Z,100571.44
2022-08-24T03:55:12.000Z,100563.81
2022-08-24T04:00:17.454Z,100565.84
2022-08-24T04:05:29.302Z,100559.88
2022-08-24T04:10:38.910Z,100567.06
2022-08-24T04:15:44.309Z,100563.69
2022-08-24T04:20:47.376Z,100567.78
2022-08-24T04:25:53.471Z,100573.44
2022-08-24T04:30:57.917Z,100577.16
2022-08-24T04:36:08.602Z,100575.41
2022-08-24T04:41:16.130Z,100578.16
2022-08-24T04:46:31.642Z,100589.59
2022-08-24T04:51:36.502Z,100590.94
2022-08-24T04:56:40.299Z,100585.34
2022-08-24T05:01:44.526Z,100589.66
2022-08-24T05:06:47.443Z,100589.94
2022-08-24T05:11:57.385Z,100590.63
2022-08-24T05:17:04.939Z,100596.34
2022-08-24T05:22:12.080Z,100599.59
2022-08-24T05:27:20.377Z,100611.63
2022-08-24T05:32:28.564Z,100603.97
2022-08-24T05:37:31.559Z,100618.22
2022-08-24T05:42:55.348Z,100621.56
2022-08-24T05:48:00.290Z,100615.78
2022-08-24T05:53:38.748Z,100625.91
2022-08-24T05:58:43.204Z,100620.34
2022-08-24T06:03:49.923Z,100626.63
2022-08-24T06:08:55.824Z,100625.75
2022-08-24T06:14:01.780Z,100626.03
2022-08-24T06:19:10.359Z,100630.69
2022-08-24T06:24:15.641Z,100636.44
2022-08-24T06:29:21.730Z,100642.13
2022-08-24T06:34:30.653Z,100634.09
2022-08-24T06:39:33.808Z,100639.34
2022-08-24T06:44:38.860Z,100644.44
2022-08-24T06:49:54.888Z,100650.75
2022-08-24T06:54:57.828Z,100652.09
2022-08-24T07:00:00.871Z,100659.25
2022-08-24T07:05:06.977Z,100656.41
2022-08-24T07:10:39.409Z,100663.88
2022-08-24T07:15:42.758Z,100664.38
2022-08-24T07:20:50.403Z,100667.38
2022-08-24T07:26:20.977Z,100679.72
2022-08-24T07:31:26.723Z,100676.53
2022-08-24T07:36:44.458Z,100682.69
2022-08-24T07:47:36.607Z,100682.59
2022-08-24T07:52:36.296Z,100683.88
2022-08-24T07:57:39.513Z,100678.94
2022-08-24T08:02:46.582Z,100690.53
2022-08-24T08:07:53.490Z,100699.50
2022-08-24T08:12:56.818Z,100700.19
2022-08-24T08:18:00.114Z,100700.22
2022-08-24T08:23:21.894Z,100683.56
2022-08-24T08:28:50.905Z,100684.78
2022-08-24T08:33:54.810Z,100687.41
2022-08-24T08:38:59.905Z,100685.28
2022-08-24T08:44:07.575Z,100685.13
2022-08-24T08:49:31.476Z,100686.66
2022-08-24T08:54:45.869Z,100679.56
2022-08-24T09:00:07.110Z,100696.59
2022-08-24T09:05:44.701Z,100691.75
2022-08-24T09:10:58.521Z,100686.16
2022-08-24T09:16:25.772Z,100680.50
2022-08-24T09:21:45.636Z,100684.47
2022-08-24T09:26:59.541Z,100684.66
2022-08-24T09:32:23.701Z,100678.88
2022-08-24T09:37:33.888Z,100673.31
2022-08-24T09:43:08.525Z,100677.16
2022-08-24T09:49:00.067Z,100676.88
2022-08-24T09:54:53.506Z,100673.91
2022-08-24T10:00:12.178Z,100662.72
2022-08-24T10:05:24.847Z,100665.13
2022-08-24T10:10:34.996Z,100658.84
2022-08-24T10:15:49.098Z,100648.97
2022-08-24T10:21:06.268Z,100638.47
2022-08-24T10:26:21.044Z,100629.84
2022-08-24T10:31:33.827Z,100639.88
2022-08-24T10:37:15.612Z,100637.00
2022-08-24T10:43:11.688Z,100630.88
2022-08-24T10:49:02.221Z,100633.13
2022-08-24T10:54:06.352Z,100630.41
2022-08-24T10:59:24.836Z,100636.00
2022-08-24T11:04:31.140Z,100631.78
2022-08-24T11:09:45.616Z,100626.06
2022-08-24T11:14:49.491Z,100618.75
2022-08-24T11:19:53.744Z,100620.22
2022-08-24T11:25:00.172Z,100613.91
2022-08-24T11:30:10.848Z,100621.81
2022-08-24T11:35:23.594Z,100608.09
2022-08-24T11:40:31.449Z,100609.16
2022-08-24T11:45:41.988Z,100607.28
2022-08-24T11:50:53.759Z,100609.88
2022-08-24T11:56:06.065Z,100602.72
2022-08-24T12:01:18.913Z,100592.75
2022-08-24T12:06:34.461Z,100605.16
2022-08-24T12:11:44.926Z,100601.22
2022-08-24T12:16:55.488Z,100593.75
2022-08-24T12:22:03.189Z,100585.09
2022-08-24T12:27:11.082Z,100588.06
2022-08-24T12:32:20.119Z,100592.56
2022-08-24T12:37:31.408Z,100583.00
2022-08-24T12:42:51.270Z,100585.00
2022-08-24T12:48:02.017Z,100583.06
2022-08-24T12:53:30.264Z,100576.88
2022-08-24T12:58:54.336Z,100578.03
2022-08-24T13:04:13.449Z,100566.28
2022-08-24T13:09:30.910Z,100574.97
2022-08-24T13:14:35.451Z,100561.75
2022-08-24T13:19:42.169Z,100569.63
2022-08-24T13:24:48.118Z,100560.66
2022-08-24T13:30:01.536Z,100561.94
2022-08-24T13:35:34.928Z,100554.94
2022-08-24T13:40:51.860Z,100558.75
2022-08-24T13:46:00.949Z,100552.78
2022-08-24T13:51:34.248Z,100550.28
2022-08-24T13:57:05.412Z,100548.56
2022-08-24T14:02:25.830Z,100548.09
2022-08-24T14:07:32.592Z,100550.09
2022-08-24T14:12:50.044Z,100543.59
2022-08-24T14:18:08.064Z,100537.81
2022-08-24T14:23:28.078Z,100532.44
2022-08-24T14:28:41.732Z,100536.53
2022-08-24T14:33:54.932Z,100530.34
2022-08-24T14:39:05.064Z,100529.16
2022-08-24T14:44:37.888Z,100534.63
2022-08-24T14:49:46.695Z,100522.88
2022-08-24T14:55:04.373Z,100519.69
2022-08-24T15:00:14.118Z,100529.66
2022-08-24T15:05:25.001Z,100522.75
2022-08-24T15:10:36.989Z,100512.78
2022-08-24T15:15:47.025Z,100506.91
2022-08-24T15:21:03.945Z,100508.72
2022-08-24T15:26:15.209Z,100500.34
2022-08-24T15:31:24.563Z,100503.88
2022-08-24T15:36:30.018Z,100501.31
2022-08-24T15:41:36.236Z,100497.69
2022-08-24T15:46:44.578Z,100490.88
2022-08-24T15:51:51.825Z,100494.50
2022-08-24T15:56:58.456Z,100501.50
2022-08-24T16:02:30.414Z,100503.81
2022-08-24T16:07:55.748Z,100491.72
2022-08-24T16:13:08.753Z,100492.56
2022-08-24T16:18:13.767Z,100493.06
2022-08-24T16:23:25.598Z,100486.88
2022-08-24T16:28:37.226Z,100495.59
2022-08-24T16:33:45.443Z,100493.53
2022-08-24T16:38:51.033Z,100492.13
2022-08-24T16:43:54.046Z,100494.91
2022-08-24T16:48:58.993Z,100491.88
2022-08-24T16:54:01.781Z,100499.19
2022-08-24T16:59:06.348Z,100504.34
2022-08-24T17:04:10.527Z,100502.50
2022-08-24T17:09:13.420Z,100498.69
2022-08-24T17:14:17.260Z,100495.50
2022-08-24T17:19:21.672Z,100500.22
2022-08-24T17:24:25.225Z,100494.19
2022-08-24T17:29:28.368Z,100506.44
2022-08-24T17:34:33.260Z,100515.34
2022-08-24T17:39:36.685Z,100521.81
2022-08-24T17:44:39.653Z,100523.09
2022-08-24T17:49:44.225Z,100526.63
2022-08-24T17:54:47.043Z,100540.00
2022-08-24T17:59:50.811Z,100534.69
2022-08-24T18:04:55.019Z,100541.34
2022-08-24T18:10:00.688Z,100545.03
2022-08-24T18:15:03.633Z,100550.22
2022-08-24T18:20:10.328Z,100560.19
2022-08-24T18:25:14.708Z,100560.69
2022-08-24T18:30:22.727Z,100572.84
2022-08-24T18:35:30.713Z,100581.41
2022-08-24T18:40:33.782Z,100581.38
2022-08-24T18:45:37.320Z,100596.59
2022-08-24T18:50:42.996Z,100595.88
2022-08-24T18:55:47.221Z,100601.28
2022-08-24T19:00:51.545Z,100601.13
2022-08-24T19:05:56.477Z,100610.78
2022-08-24T19:10:59.885Z,100608.66
2022-08-24T19:16:03.003Z,100610.72
2022-08-24T19:21:08.035Z,100613.25
2022-08-24T19:26:10.903Z,100606.63
2022-08-24T19:31:14.935Z,100619.53
2022-08-24T19:36:19.519Z,100621.31
2022-08-24T19:41:22.884Z,100621.44
2022-08-24T19:46:38.656Z,100627.47
2022-08-24T19:51:42.900Z,100618.22
2022-08-24T19:56:46.691Z,100622.72
2022-08-24T20:01:49.612Z,100636.78
2022-08-24T20:06:54.365Z,100635.19
2022-08-24T20:11:57.141Z,100630.38
2022-08-24T20:17:00.216Z,100640.13
2022-08-24T20:22:13.039Z,100639.75
2022-08-24T20:27:20.676Z,100648.66
2022-08-24T20:32:23.906Z,100654.59
2022-08-24T20:37:31.165Z,100648.09
2022-08-24T20:42:34.003Z,100654.22
2022-08-24T20:47:41.063Z,100649.63
2022-08-24T20:52:45.279Z,100653.59
2022-08-24T20:57:50.721Z,100650.03
2022-08-24T21:02:53.683Z,100657.00
2022-08-24T21:07:58.431Z,100655.34
2022-08-24T21:13:02.609Z,100662.28
2022-08-24T21:18:05.949Z,100661.47
2022-08-24T21:23:10.957Z,100661.66
2022-08-24T21:28:16.408Z,100668.63
2022-08-24T21:33:37.013Z,100673.03
2022-08-24T21:38:41.238Z,100665.22
2022-08-24T21:43:48.396Z,100670.69
2022-08-24T21:48:51.305Z,100678.69
2022-08-24T21:53:59.393Z,100680.75
2022-08-24T21:59:02.875Z,100675.72
2022-08-24T22:04:06.127Z,100691.53
2022-08-24T22:09:10.394Z,100693.81
2022-08-24T22:14:15.197Z,100686.19
2022-08-24T22:19:18.187Z,100679.81
2022-08-24T22:24:22.404Z,100676.78
2022-08-24T22:29:25.644Z,100681.59
2022-08-24T22:34:28.573Z,100676.31
2022-08-24T22:39:33.264Z,100675.22
2022-08-24T22:44:36.418Z,100676.63
2022-08-24T22:49:43.875Z,100670.50
2022-08-24T22:54:48.096Z,100666.91
2022-08-24T22:59:50.965Z,100656.97
2022-08-24T23:04:54.546Z,100666.47
2022-08-24T23:09:58.794Z,100666.47
2022-08-24T23:15:01.899Z,100672.94
2022-08-24T23:20:07.845Z,100669.53
2022-08-24T23:25:14.302Z,100667.06
2022-08-24T23:30:17.252Z,100661.47
2022-08-24T23:35:20.099Z,100667.28
2022-08-24T23:40:24.391Z,100661.53
2022-08-24T23:45:28.545Z,100662.16
2022-08-24T23:50:34.337Z,100668.47
2022-08-24T23:55:38.533Z,100657.25
